Time;durP1;ratioP1;P1;durP2;ratioP2;P2;SDS_P1;SDS_P2;PMS_P1;PMS_P2;Temp;Humidity;BMP_temperature;BMP_pressure;BME280_temperature;BME280_humidity;BME280_pressure;Samples;Min_cycle;Max_cycle;Signal;HPM_P1;HPM_P2
2022/07/23 00:01:21;;;;;;;9.77;6.70;;;14.50;85.00;;;;;;5137636;27;20087;-78
2022/07/23 00:03:47;;;;;;;11.05;6.47;;;14.40;85.80;;;;;;5137689;27;20035;-75
2022/07/23 00:06:13;;;;;;;11.63;6.72;;;14.30;85.70;;;;;;5085508;27;20073;-74
2022/07/23 00:08:39;;;;;;;9.88;6.95;;;14.30;85.40;;;;;;5119382;27;20039;-75
2022/07/23 00:11:05;;;;;;;12.27;6.88;;;14.30;85.40;;;;;;5119229;27;20039;-76
2022/07/23 00:13:30;;;;;;;9.88;6.57;;;14.30;85.40;;;;;;5119180;27;20088;-77
2022/07/23 00:15:56;;;;;;;12.00;6.97;;;14.40;85.50;;;;;;5136385;27;20135;-77
2022/07/23 00:18:22;;;;;;;12.65;7.60;;;14.40;85.60;;;;;;5119168;27;20043;-76
2022/07/23 00:20:48;;;;;;;15.10;9.05;;;14.50;85.60;;;;;;5119061;27;20076;-75
2022/07/23 00:23:14;;;;;;;15.75;10.32;;;14.40;85.60;;;;;;5102247;27;20123;-74
2022/07/23 00:25:40;;;;;;;16.33;10.48;;;14.40;85.70;;;;;;5119005;27;20039;-79
2022/07/23 00:28:05;;;;;;;12.70;10.10;;;14.30;85.80;;;;;;5114374;28;20055;-75
2022/07/23 00:30:31;;;;;;;11.85;9.13;;;14.30;85.70;;;;;;5131573;28;20139;-78
2022/07/23 00:33:00;;;;;;;10.77;9.00;;;14.30;85.70;;;;;;5080311;28;20046;-73
2022/07/23 00:35:28;;;;;;;10.80;9.05;;;14.30;85.80;;;;;;5114404;28;20387;-77
2022/07/23 00:37:55;;;;;;;10.25;8.40;;;14.30;85.80;;;;;;5096885;28;20076;-73
2022/07/23 00:40:21;;;;;;;11.90;9.25;;;14.20;85.80;;;;;;5113539;28;20035;-75
2022/07/23 00:42:47;;;;;;;13.65;9.90;;;14.20;85.90;;;;;;5096957;28;20050;-78
2022/07/23 00:45:13;;;;;;;14.43;9.63;;;14.10;86.20;;;;;;5113987;28;20122;-75
2022/07/23 00:47:38;;;;;;;12.05;9.48;;;14.10;86.30;;;;;;5097134;28;20054;-76
2022/07/23 00:50:06;;;;;;;14.48;9.68;;;14.10;86.70;;;;;;5097026;28;20043;-75
2022/07/23 00:52:32;;;;;;;11.60;8.60;;;14.00;86.50;;;;;;5114030;28;20055;-74
2022/07/23 00:54:59;;;;;;;10.68;8.23;;;14.00;87.10;;;;;;5113757;28;20036;-77
2022/07/23 00:57:25;;;;;;;9.98;7.88;;;14.00;86.90;;;;;;5114194;28;20043;-75
2022/07/23 00:59:51;;;;;;;9.93;8.07;;;14.00;86.80;;;;;;5130903;28;20479;-77
2022/07/23 01:02:16;;;;;;;9.00;7.85;;;14.00;87.00;;;;;;5113773;28;20119;-77
2022/07/23 01:04:42;;;;;;;8.15;7.25;;;13.90;86.70;;;;;;5096756;28;20051;-76
2022/07/23 01:07:08;;;;;;;10.95;7.05;;;13.90;86.70;;;;;;5096867;28;20047;-78
2022/07/23 01:09:33;;;;;;;9.80;7.28;;;14.00;87.00;;;;;;5113859;28;20039;-74
2022/07/23 01:11:59;;;;;;;11.50;7.30;;;13.90;86.90;;;;;;5113447;28;20043;-76
2022/07/23 01:14:26;;;;;;;10.95;7.60;;;13.90;86.90;;;;;;5113692;28;20039;-74
2022/07/23 01:16:52;;;;;;;13.27;6.97;;;14.00;86.90;;;;;;5114684;28;20050;-75
2022/07/23 01:19:18;;;;;;;8.52;7.00;;;14.00;86.80;;;;;;5113461;28;20123;-75
2022/07/23 01:21:48;;;;;;;8.63;5.93;;;14.00;86.80;;;;;;5113629;28;20487;-73
2022/07/23 01:24:15;;;;;;;8.88;6.60;;;14.00;86.70;;;;;;5113722;28;20131;-74
2022/07/23 01:26:44;;;;;;;7.90;6.50;;;14.00;86.60;;;;;;5055124;28;1176903;-74
2022/07/23 01:29:10;;;;;;;12.45;6.55;;;14.00;86.60;;;;;;5114634;28;20070;-75
2022/07/23 01:31:36;;;;;;;8.32;6.53;;;14.00;86.50;;;;;;5114006;28;20420;-73
2022/07/23 01:34:02;;;;;;;10.57;6.28;;;14.00;86.40;;;;;;5131272;27;20502;-76
2022/07/23 01:36:28;;;;;;;10.05;7.00;;;14.00;86.40;;;;;;5131630;27;20047;-77
2022/07/23 01:38:54;;;;;;;9.23;6.13;;;14.00;86.40;;;;;;5131281;27;20043;-74
2022/07/23 01:41:20;;;;;;;8.07;6.57;;;14.00;86.30;;;;;;5131503;27;20059;-76
2022/07/23 01:43:46;;;;;;;9.98;6.60;;;14.00;86.20;;;;;;5097189;28;20054;-75
2022/07/23 01:46:12;;;;;;;10.35;6.22;;;13.90;86.10;;;;;;5131502;27;20047;-78
2022/07/23 01:48:38;;;;;;;8.63;6.18;;;13.90;86.10;;;;;;5130960;27;20491;-76
2022/07/23 01:51:04;;;;;;;8.27;5.85;;;13.90;86.10;;;;;;5130632;27;20105;-75
2022/07/23 01:53:32;;;;;;;7.28;6.05;;;13.90;86.20;;;;;;5113137;28;20067;-74
2022/07/23 01:55:59;;;;;;;7.53;6.38;;;13.90;86.30;;;;;;5130959;27;20122;-75
2022/07/23 01:58:25;;;;;;;11.52;7.32;;;13.80;86.40;;;;;;5130974;27;20043;-74
2022/07/23 02:00:51;;;;;;;10.63;6.60;;;13.90;86.30;;;;;;5096887;28;20079;-76
2022/07/23 02:03:17;;;;;;;8.05;6.65;;;13.80;86.40;;;;;;5113556;28;20035;-74
2022/07/23 02:05:43;;;;;;;8.98;5.80;;;13.80;86.40;;;;;;5113486;28;20035;-73
2022/07/23 02:08:08;;;;;;;9.45;6.78;;;13.80;86.60;;;;;;5130621;27;20087;-77
2022/07/23 02:10:34;;;;;;;11.57;6.82;;;13.80;86.50;;;;;;5096558;28;20444;-75
2022/07/23 02:13:00;;;;;;;9.98;6.90;;;13.90;86.60;;;;;;5113327;28;20402;-79
2022/07/23 02:15:26;;;;;;;9.90;6.32;;;13.80;86.60;;;;;;5113588;28;20096;-75
2022/07/23 02:17:52;;;;;;;9.05;6.40;;;13.80;86.60;;;;;;5113458;28;20122;-76
2022/07/23 02:20:18;;;;;;;10.93;7.03;;;13.80;86.60;;;;;;5130509;27;20074;-75
2022/07/23 02:22:44;;;;;;;9.07;6.95;;;13.80;86.90;;;;;;5130303;27;20048;-74
2022/07/23 02:25:09;;;;;;;10.52;5.82;;;13.80;86.90;;;;;;5079532;28;20047;-77
2022/07/23 02:27:36;;;;;;;7.70;6.53;;;13.80;87.30;;;;;;5130201;27;20107;-75
2022/07/23 02:30:03;;;;;;;10.07;7.72;;;13.80;87.10;;;;;;5096074;28;20645;-74
2022/07/23 02:32:28;;;;;;;9.23;6.10;;;13.70;87.00;;;;;;5130087;27;20058;-76
2022/07/23 02:34:54;;;;;;;12.30;6.68;;;13.70;87.10;;;;;;5079359;28;20047;-76
2022/07/23 02:37:20;;;;;;;9.90;6.00;;;13.70;87.20;;;;;;5113537;28;20093;-74
2022/07/23 02:39:48;;;;;;;9.73;5.85;;;13.80;87.20;;;;;;5112959;28;20433;-77
2022/07/23 02:42:14;;;;;;;9.18;6.15;;;13.70;87.30;;;;;;5112848;28;20047;-76
2022/07/23 02:44:39;;;;;;;6.55;5.75;;;13.70;87.50;;;;;;5113255;28;20039;-75
2022/07/23 02:47:05;;;;;;;7.28;5.32;;;13.70;87.20;;;;;;5130245;27;20448;-77
2022/07/23 02:49:31;;;;;;;7.68;6.30;;;13.70;87.20;;;;;;5130217;27;20048;-77
2022/07/23 02:51:57;;;;;;;9.63;5.47;;;13.70;87.20;;;;;;5095810;28;20104;-78
2022/07/23 02:54:22;;;;;;;7.05;4.70;;;13.70;87.40;;;;;;5130194;27;20039;-75
2022/07/23 02:56:50;;;;;;;6.45;5.60;;;13.70;87.10;;;;;;5095875;28;20503;-75
2022/07/23 02:59:16;;;;;;;7.53;5.15;;;13.60;87.10;;;;;;5129935;27;20039;-78
2022/07/23 03:01:41;;;;;;;6.88;5.07;;;13.70;87.10;;;;;;5129725;27;20084;-74
2022/07/23 03:04:07;;;;;;;7.78;5.32;;;13.70;87.00;;;;;;5112478;28;20075;-75
2022/07/23 03:06:33;;;;;;;7.35;5.18;;;13.60;87.00;;;;;;5112629;28;20040;-76
2022/07/23 03:08:59;;;;;;;8.57;5.68;;;13.60;87.00;;;;;;5096018;28;20043;-75
2022/07/23 03:11:24;;;;;;;6.75;5.78;;;13.60;87.00;;;;;;5112457;28;20176;-74
2022/07/23 03:13:50;;;;;;;7.50;5.35;;;13.60;87.00;;;;;;5129609;27;20047;-75
2022/07/23 03:16:16;;;;;;;9.88;5.82;;;13.70;87.00;;;;;;5112443;28;20127;-74
2022/07/23 03:18:41;;;;;;;8.77;5.53;;;13.60;87.00;;;;;;5129714;28;20062;-77
2022/07/23 03:21:07;;;;;;;8.65;6.07;;;13.60;86.90;;;;;;5129560;28;20089;-74
2022/07/23 03:23:33;;;;;;;7.20;5.20;;;13.60;86.90;;;;;;5130006;28;20044;-75
2022/07/23 03:25:58;;;;;;;11.50;5.82;;;13.60;86.90;;;;;;5095955;28;20089;-74
2022/07/23 03:28:24;;;;;;;8.32;5.75;;;13.50;86.90;;;;;;5115768;28;20039;-75
2022/07/23 03:30:50;;;;;;;8.50;6.70;;;13.60;87.00;;;;;;5098997;28;20050;-76
2022/07/23 03:33:18;;;;;;;6.75;5.75;;;13.60;86.90;;;;;;5115796;28;20471;-75
2022/07/23 03:35:44;;;;;;;8.48;6.03;;;13.60;87.00;;;;;;5116003;28;20035;-77
2022/07/23 03:38:10;;;;;;;7.85;6.18;;;13.50;87.00;;;;;;5115718;28;20035;-77
2022/07/23 03:40:36;;;;;;;12.73;7.22;;;13.60;87.00;;;;;;5098507;28;20035;-76
2022/07/23 03:43:01;;;;;;;8.68;5.57;;;13.60;86.90;;;;;;5133628;28;20054;-74
2022/07/23 03:45:27;;;;;;;8.90;6.20;;;13.60;86.90;;;;;;5115472;28;20065;-75
2022/07/23 03:47:53;;;;;;;10.15;5.47;;;13.50;86.80;;;;;;5098871;28;20039;-73
2022/07/23 03:50:19;;;;;;;10.35;5.95;;;13.50;86.80;;;;;;5115506;28;20043;-76
2022/07/23 03:52:44;;;;;;;8.35;5.95;;;13.50;86.80;;;;;;5115553;28;20046;-78
2022/07/23 03:55:10;;;;;;;8.68;5.90;;;13.50;86.80;;;;;;5115510;28;20489;-78
2022/07/23 03:57:36;;;;;;;7.25;5.93;;;13.50;86.80;;;;;;5115672;28;20039;-76
2022/07/23 04:00:05;;;;;;;9.52;5.82;;;13.50;86.90;;;;;;5132895;28;20394;-77
2022/07/23 04:02:31;;;;;;;7.35;5.68;;;13.50;86.80;;;;;;5115604;28;20049;-77
2022/07/23 04:04:57;;;;;;;9.50;6.15;;;13.50;86.80;;;;;;5115443;28;20381;-77
2022/07/23 04:07:22;;;;;;;12.75;6.13;;;13.50;86.90;;;;;;5132501;28;20047;-76
2022/07/23 04:09:48;;;;;;;8.23;5.78;;;13.50;86.90;;;;;;5115353;28;20042;-75
2022/07/23 04:12:14;;;;;;;9.10;6.25;;;13.50;86.90;;;;;;5115377;28;20043;-76
2022/07/23 04:14:40;;;;;;;7.40;5.63;;;13.50;86.90;;;;;;5115613;27;20046;-76
2022/07/23 04:17:06;;;;;;;9.45;6.05;;;13.50;87.20;;;;;;5119236;27;20039;-75
2022/07/23 04:19:32;;;;;;;10.27;5.20;;;13.50;87.00;;;;;;5119323;27;20126;-76
2022/07/23 04:21:58;;;;;;;9.98;5.75;;;13.40;86.90;;;;;;5119020;27;20125;-75
2022/07/23 04:24:23;;;;;;;9.68;6.03;;;13.30;86.90;;;;;;5119086;27;20047;-75
2022/07/23 04:26:49;;;;;;;8.77;5.80;;;13.30;86.90;;;;;;5118659;27;20087;-72
2022/07/23 04:29:15;;;;;;;10.43;6.05;;;13.30;87.20;;;;;;5119301;27;20047;-75
2022/07/23 04:31:40;;;;;;;11.52;6.00;;;13.20;87.30;;;;;;5108302;28;20070;-76
2022/07/23 04:34:06;;;;;;;8.38;5.70;;;13.20;87.40;;;;;;5115566;28;20036;-73
2022/07/23 04:36:32;;;;;;;9.80;6.15;;;13.20;87.70;;;;;;5098758;28;20087;-74
2022/07/23 04:38:58;;;;;;;12.32;6.82;;;13.10;87.80;;;;;;5115482;28;20524;-75
2022/07/23 04:41:23;;;;;;;7.45;5.88;;;13.10;87.60;;;;;;5081392;28;20410;-74
2022/07/23 04:43:49;;;;;;;9.75;6.55;;;13.10;88.10;;;;;;5081327;28;20479;-74
2022/07/23 04:46:15;;;;;;;10.15;6.45;;;13.20;88.00;;;;;;5115443;28;20044;-73
2022/07/23 04:48:42;;;;;;;7.05;5.90;;;13.20;87.70;;;;;;5115436;28;20047;-73
2022/07/23 04:51:07;;;;;;;11.30;7.07;;;13.20;87.70;;;;;;5081117;28;20043;-74
2022/07/23 04:53:33;;;;;;;8.23;7.03;;;13.20;87.50;;;;;;5098160;28;20039;-74
2022/07/23 04:55:59;;;;;;;8.40;5.82;;;13.20;87.60;;;;;;5115242;28;20120;-74
2022/07/23 04:58:24;;;;;;;10.65;6.32;;;13.20;87.50;;;;;;5081281;28;20084;-75
2022/07/23 05:00:50;;;;;;;7.07;6.38;;;13.30;87.50;;;;;;5115149;28;20079;-72
2022/07/23 05:03:16;;;;;;;8.30;5.82;;;13.30;87.50;;;;;;5081115;28;20043;-73
2022/07/23 05:05:41;;;;;;;10.07;5.85;;;13.40;87.80;;;;;;5114641;28;20104;-75
2022/07/23 05:08:07;;;;;;;8.38;5.30;;;13.50;87.50;;;;;;5114794;28;20042;-74
2022/07/23 05:10:33;;;;;;;7.95;4.93;;;13.50;87.50;;;;;;5114767;28;20043;-74
2022/07/23 05:12:58;;;;;;;5.53;4.18;;;13.70;87.50;;;;;;5114640;28;20051;-74
2022/07/23 05:15:24;;;;;;;5.35;4.30;;;13.70;87.50;;;;;;5114660;28;20544;-79
2022/07/23 05:17:50;;;;;;;7.00;4.75;;;13.90;87.70;;;;;;5114616;28;20044;-76
2022/07/23 05:20:15;;;;;;;7.43;4.10;;;13.90;87.50;;;;;;5097487;28;20028;-74
2022/07/23 05:22:41;;;;;;;5.55;3.88;;;14.00;87.10;;;;;;5114826;28;20050;-78
2022/07/23 05:25:07;;;;;;;4.72;3.53;;;14.10;86.70;;;;;;5097471;28;20510;-78
2022/07/23 05:27:33;;;;;;;5.78;4.10;;;14.20;86.40;;;;;;5095926;28;20048;-76
2022/07/23 05:29:59;;;;;;;5.10;3.90;;;14.30;86.10;;;;;;5114364;28;20051;-75
2022/07/23 05:32:25;;;;;;;5.65;3.90;;;14.40;85.60;;;;;;5114319;28;20114;-74
2022/07/23 05:34:50;;;;;;;6.55;4.50;;;14.50;85.50;;;;;;5080365;28;20039;-77
2022/07/23 05:37:16;;;;;;;8.55;3.15;;;14.50;85.40;;;;;;5097337;28;20092;-74
2022/07/23 05:39:42;;;;;;;4.95;3.75;;;14.60;85.10;;;;;;5114200;28;20555;-76
2022/07/23 05:42:08;;;;;;;9.38;4.00;;;14.70;84.80;;;;;;5080420;28;20173;-76
2022/07/23 05:44:34;;;;;;;4.50;3.58;;;14.70;84.80;;;;;;5080398;28;20075;-76
2022/07/23 05:46:59;;;;;;;7.32;3.97;;;14.80;84.50;;;;;;5097025;28;20035;-76
2022/07/23 05:49:25;;;;;;;6.55;3.53;;;14.90;84.60;;;;;;5113997;28;20046;-76
2022/07/23 05:51:51;;;;;;;5.68;3.58;;;14.90;84.70;;;;;;5113828;28;20040;-76
2022/07/23 05:54:17;;;;;;;5.53;3.10;;;15.00;84.80;;;;;;5114042;28;20063;-76
2022/07/23 05:56:42;;;;;;;9.18;3.03;;;15.00;84.80;;;;;;5096623;28;20528;-75
2022/07/23 05:59:09;;;;;;;4.35;3.08;;;15.10;84.80;;;;;;5113633;28;20414;-76
2022/07/23 06:01:34;;;;;;;9.45;4.07;;;15.20;84.80;;;;;;5114006;28;20083;-77
2022/07/23 06:04:00;;;;;;;4.90;2.72;;;15.30;84.60;;;;;;5080107;28;20075;-75
2022/07/23 06:06:26;;;;;;;4.60;2.42;;;15.40;83.90;;;;;;5113692;28;20044;-78
2022/07/23 06:08:51;;;;;;;6.00;2.28;;;15.50;83.70;;;;;;5096607;28;20089;-77
2022/07/23 06:11:17;;;;;;;5.07;2.17;;;15.60;83.60;;;;;;5096716;28;20044;-77
2022/07/23 06:13:43;;;;;;;3.65;2.10;;;15.70;83.00;;;;;;5079940;28;20479;-76
2022/07/23 06:16:08;;;;;;;3.15;1.85;;;15.70;82.80;;;;;;5096481;28;20047;-76
2022/07/23 06:18:34;;;;;;;4.13;1.60;;;15.90;82.70;;;;;;5113721;28;20050;-76
2022/07/23 06:21:00;;;;;;;6.30;2.25;;;15.90;82.10;;;;;;5079893;28;20475;-76
2022/07/23 06:23:26;;;;;;;5.00;1.88;;;16.00;81.80;;;;;;5113391;28;20032;-76
2022/07/23 06:25:52;;;;;;;2.35;1.40;;;16.00;81.50;;;;;;5096698;28;20051;-76
2022/07/23 06:28:17;;;;;;;5.30;1.08;;;16.10;80.80;;;;;;5096578;28;20052;-76
2022/07/23 06:30:43;;;;;;;4.00;1.17;;;16.20;80.20;;;;;;5113462;28;20040;-76
2022/07/23 06:33:09;;;;;;;2.30;1.05;;;16.30;79.70;;;;;;5113083;28;20501;-76
2022/07/23 06:35:35;;;;;;;2.50;0.90;;;16.40;79.10;;;;;;5079541;28;20039;-75
2022/07/23 06:38:01;;;;;;;3.15;0.90;;;16.50;78.80;;;;;;5078850;28;20403;-77
2022/07/23 06:40:26;;;;;;;1.65;0.60;;;16.50;78.70;;;;;;5113254;28;20035;-75
2022/07/23 06:42:52;;;;;;;1.17;0.68;;;16.60;78.50;;;;;;5113222;28;20464;-77
2022/07/23 06:45:18;;;;;;;3.10;0.85;;;16.70;77.50;;;;;;5096155;28;20040;-77
2022/07/23 06:47:43;;;;;;;1.95;0.70;;;16.80;76.40;;;;;;5096080;28;20075;-77
2022/07/23 06:50:10;;;;;;;2.47;0.60;;;16.90;76.30;;;;;;5079240;28;20070;-75
2022/07/23 06:52:36;;;;;;;1.65;0.55;;;17.00;76.20;;;;;;5112590;28;20040;-76
2022/07/23 06:55:02;;;;;;;1.83;0.80;;;17.00;75.10;;;;;;5112885;28;20046;-75
2022/07/23 06:57:27;;;;;;;3.42;0.70;;;17.10;73.70;;;;;;5113127;28;20039;-75
2022/07/23 06:59:53;;;;;;;1.38;0.40;;;17.20;74.00;;;;;;5112735;28;20494;-75
2022/07/23 07:02:19;;;;;;;1.45;0.50;;;17.30;73.00;;;;;;5078697;28;20056;-76
2022/07/23 07:04:45;;;;;;;1.02;0.57;;;17.40;72.30;;;;;;5096107;28;20040;-77
2022/07/23 07:07:11;;;;;;;1.38;0.60;;;17.40;71.80;;;;;;5113745;28;20043;-75
2022/07/23 07:09:37;;;;;;;0.80;0.55;;;17.50;72.30;;;;;;5062140;28;20044;-76
2022/07/23 07:12:03;;;;;;;1.58;0.50;;;17.50;72.10;;;;;;5094101;28;20047;-76
2022/07/23 07:14:29;;;;;;;2.13;1.02;;;17.60;71.70;;;;;;5112115;28;20369;-75
2022/07/23 07:16:55;;;;;;;2.50;0.60;;;17.60;71.40;;;;;;5111205;28;20050;-75
2022/07/23 07:19:21;;;;;;;1.30;0.57;;;17.70;71.20;;;;;;5111718;28;20039;-74
2022/07/23 07:21:46;;;;;;;2.83;0.88;;;17.70;70.50;;;;;;5078161;28;20035;-77
2022/07/23 07:24:12;;;;;;;0.82;0.40;;;17.70;70.10;;;;;;5078258;28;20107;-76
2022/07/23 07:26:39;;;;;;;0.55;0.40;;;17.70;69.30;;;;;;5111795;28;20469;-76
2022/07/23 07:29:05;;;;;;;2.10;0.50;;;17.80;68.30;;;;;;5078855;28;20058;-75
2022/07/23 07:31:31;;;;;;;1.13;0.80;;;17.80;68.00;;;;;;5112319;28;20035;-76
2022/07/23 07:33:57;;;;;;;1.58;0.80;;;17.90;67.00;;;;;;5112335;28;20042;-75
2022/07/23 07:36:23;;;;;;;2.35;0.80;;;17.90;67.20;;;;;;5094533;28;20043;-76
2022/07/23 07:38:48;;;;;;;1.77;0.75;;;17.90;66.60;;;;;;5111463;28;20127;-74
2022/07/23 07:41:15;;;;;;;1.17;0.60;;;17.90;66.00;;;;;;5061072;28;20043;-75
2022/07/23 07:43:41;;;;;;;3.15;0.77;;;17.90;66.10;;;;;;5112699;28;20513;-75
2022/07/23 07:46:09;;;;;;;3.40;1.00;;;18.00;66.40;;;;;;5111895;28;20071;-76
2022/07/23 07:48:39;;;;;;;4.50;0.70;;;18.00;66.10;;;;;;5094831;28;20088;-76
2022/07/23 07:51:05;;;;;;;1.85;0.75;;;18.00;66.00;;;;;;5080775;28;20479;-75
2022/07/23 07:53:31;;;;;;;1.02;0.75;;;18.00;65.70;;;;;;5098883;28;20043;-76
2022/07/23 07:55:56;;;;;;;1.00;0.70;;;18.00;66.40;;;;;;5098991;28;20034;-76
2022/07/23 07:58:22;;;;;;;2.75;0.70;;;18.00;66.70;;;;;;5098738;28;20510;-76
2022/07/23 08:00:48;;;;;;;6.13;1.02;;;18.00;67.00;;;;;;5098840;28;20040;-76
2022/07/23 08:03:14;;;;;;;1.02;0.60;;;18.00;67.20;;;;;;5115658;28;20051;-78
2022/07/23 08:05:39;;;;;;;1.90;0.80;;;17.90;67.70;;;;;;5115601;28;20127;-77
2022/07/23 08:08:05;;;;;;;2.33;1.13;;;18.00;67.80;;;;;;5098482;28;20143;-76
2022/07/23 08:10:31;;;;;;;2.25;1.08;;;17.90;68.20;;;;;;5081791;28;20051;-74
2022/07/23 08:13:00;;;;;;;2.78;0.70;;;17.90;68.00;;;;;;5081351;28;20084;-75
2022/07/23 08:15:27;;;;;;;1.42;0.80;;;18.00;68.10;;;;;;5098598;28;20039;-79
2022/07/23 08:17:53;;;;;;;1.50;0.60;;;17.90;68.50;;;;;;5098363;28;20047;-76
2022/07/23 08:20:22;;;;;;;1.50;0.70;;;17.90;69.00;;;;;;5081270;28;20429;-77
2022/07/23 08:22:49;;;;;;;1.52;0.85;;;18.00;69.40;;;;;;5098296;28;20042;-77
2022/07/23 08:25:16;;;;;;;4.90;1.50;;;18.00;69.40;;;;;;5115260;28;20054;-79
2022/07/23 08:27:42;;;;;;;3.90;0.93;;;18.00;69.40;;;;;;5098077;28;20134;-80
2022/07/23 08:30:09;;;;;;;2.60;0.80;;;18.00;69.50;;;;;;5098058;28;20055;-76
2022/07/23 08:32:51;;;;;;;3.05;0.98;;;18.00;70.00;;;;;;5114950;28;20044;-75
2022/07/23 08:35:18;;;;;;;0.80;0.63;;;18.00;70.30;;;;;;5098114;28;20043;-74
2022/07/23 08:37:44;;;;;;;1.70;0.73;;;18.00;70.60;;;;;;5081225;28;20093;-76
2022/07/23 08:40:11;;;;;;;3.97;0.80;;;17.90;70.50;;;;;;5081290;28;20052;-79
2022/07/23 08:42:37;;;;;;;4.05;0.93;;;17.90;70.90;;;;;;5098210;28;20395;-75
2022/07/23 08:45:03;;;;;;;3.03;0.70;;;17.90;71.20;;;;;;5097857;28;20126;-76
2022/07/23 08:47:30;;;;;;;1.10;0.70;;;17.90;70.90;;;;;;5097693;28;20040;-78
2022/07/23 08:49:58;;;;;;;2.00;0.80;;;17.90;71.00;;;;;;5114598;28;20055;-76
2022/07/23 08:52:24;;;;;;;5.32;0.95;;;17.80;71.10;;;;;;5097620;28;20475;-78
2022/07/23 08:54:51;;;;;;;1.80;1.02;;;17.90;71.30;;;;;;5081089;28;20395;-78
2022/07/23 08:57:17;;;;;;;1.98;1.30;;;17.80;71.40;;;;;;5115846;28;20044;-77
2022/07/23 08:59:42;;;;;;;4.05;1.15;;;17.80;71.60;;;;;;5097832;28;20088;-75
2022/07/23 09:02:08;;;;;;;2.42;0.80;;;17.90;71.90;;;;;;5080326;28;20385;-76
2022/07/23 09:04:34;;;;;;;1.40;0.85;;;17.90;71.80;;;;;;5114740;28;20123;-78
2022/07/23 09:07:01;;;;;;;1.17;0.80;;;17.90;71.70;;;;;;5114641;28;20040;-76
2022/07/23 09:09:29;;;;;;;1.27;0.90;;;18.00;72.00;;;;;;5097384;28;20035;-75
2022/07/23 09:12:07;;;;;;;1.25;0.73;;;18.00;71.80;;;;;;5114213;28;20517;-75
2022/07/23 09:14:46;;;;;;;2.70;0.80;;;18.10;71.60;;;;;;5097195;28;20552;-75
2022/07/23 09:17:14;;;;;;;5.72;1.02;;;18.10;71.50;;;;;;5097078;28;20051;-77
2022/07/23 09:19:41;;;;;;;2.45;0.80;;;18.30;71.60;;;;;;5114383;28;20456;-76
2022/07/23 09:22:34;;;;;;;2.80;0.98;;;18.40;71.40;;;;;;5113054;28;20074;-76
2022/07/23 09:25:13;;;;;;;1.63;0.80;;;18.40;71.30;;;;;;5097225;28;20154;-74
2022/07/23 09:28:02;;;;;;;3.30;1.08;;;18.50;71.00;;;;;;5096901;28;20055;-76
2022/07/23 09:30:32;;;;;;;3.17;1.00;;;18.60;70.90;;;;;;5096930;28;20051;-75
2022/07/23 09:33:13;;;;;;;5.00;1.02;;;18.60;71.10;;;;;;5080026;28;20093;-77
2022/07/23 09:35:52;;;;;;;8.50;1.80;;;18.70;71.10;;;;;;5097206;28;20336;-78
2022/07/23 09:38:20;;;;;;;2.70;1.05;;;18.70;71.20;;;;;;5079925;28;20089;-76
2022/07/23 09:40:46;;;;;;;1.98;1.02;;;18.80;70.70;;;;;;5113775;28;20114;-74
2022/07/23 09:43:28;;;;;;;2.60;1.00;;;18.80;70.30;;;;;;5114024;28;20414;-75
2022/07/23 09:45:53;;;;;;;2.50;0.85;;;18.80;70.60;;;;;;5096659;28;20487;-77
2022/07/23 09:48:21;;;;;;;1.73;1.13;;;18.70;70.60;;;;;;5113632;28;20046;-77
2022/07/23 09:50:50;;;;;;;3.08;1.10;;;18.80;70.30;;;;;;5114790;28;20475;-77
2022/07/23 09:53:28;;;;;;;3.45;1.10;;;19.00;70.60;;;;;;5080060;28;20048;-78
2022/07/23 09:55:58;;;;;;;2.75;0.95;;;19.10;69.90;;;;;;5113733;28;20040;-77
2022/07/23 09:58:27;;;;;;;1.40;0.90;;;19.20;69.80;;;;;;5109036;27;20041;-77
2022/07/23 10:00:53;;;;;;;2.35;1.00;;;19.20;69.70;;;;;;5099781;27;20051;-78
2022/07/23 10:03:20;;;;;;;1.73;0.90;;;19.20;68.50;;;;;;5099744;27;20095;-76
2022/07/23 10:05:47;;;;;;;4.00;1.10;;;19.20;69.00;;;;;;5116686;27;20058;-75
2022/07/23 10:08:16;;;;;;;1.98;1.05;;;19.30;69.50;;;;;;5116889;27;20059;-78
2022/07/23 10:10:42;;;;;;;6.82;1.00;;;19.40;69.40;;;;;;5099563;27;20126;-74
2022/07/23 10:15:54;;;;;;;3.30;1.00;;;19.50;68.90;;;;;;5133898;27;20069;-79
2022/07/23 10:18:20;;;;;;;3.08;1.35;;;19.50;68.90;;;;;;5116465;27;20510;-76
2022/07/23 10:20:48;;;;;;;3.30;1.20;;;19.60;68.70;;;;;;5099339;27;20043;-78
2022/07/23 10:23:27;;;;;;;7.47;1.75;;;19.70;68.60;;;;;;5133671;27;20038;-73
2022/07/23 10:26:11;;;;;;;3.55;1.10;;;19.80;67.90;;;;;;5116355;27;20058;-75
2022/07/23 10:28:45;;;;;;;;;;;20.00;67.50;;;;;;5116945;27;20047;-77
2022/07/23 10:31:34;;;;;;;2.33;1.23;;;20.20;66.00;;;;;;5116240;27;19915;-74
2022/07/23 10:34:36;;;;;;;1.48;1.02;;;20.50;65.70;;;;;;5115954;27;20039;-75
2022/07/23 10:37:15;;;;;;;2.58;1.15;;;20.50;64.90;;;;;;5116168;27;20131;-74
2022/07/23 10:39:41;;;;;;;2.05;1.20;;;20.40;65.20;;;;;;5116384;27;20043;-76
2022/07/23 10:42:11;;;;;;;2.67;1.25;;;20.30;65.40;;;;;;5099188;27;20047;-76
2022/07/23 10:44:47;;;;;;;1.48;1.00;;;20.40;65.40;;;;;;5133086;27;20479;-76
2022/07/23 10:47:43;;;;;;;2.42;1.10;;;20.50;65.60;;;;;;5116176;27;20106;-77
2022/07/23 10:50:20;;;;;;;3.25;1.00;;;20.60;64.10;;;;;;5134317;27;20039;-74
2022/07/23 10:53:18;;;;;;;1.90;1.08;;;20.70;63.80;;;;;;5115753;27;20043;-74
2022/07/23 10:55:47;;;;;;;2.25;1.13;;;20.80;63.30;;;;;;5116084;27;20066;-79
2022/07/23 10:58:44;;;;;;;4.20;1.48;;;20.90;63.50;;;;;;5115784;27;20049;-78
2022/07/23 11:01:33;;;;;;;1.80;1.27;;;20.90;63.50;;;;;;5115459;27;20118;-76
2022/07/23 11:03:59;;;;;;;3.22;1.75;;;20.90;63.10;;;;;;5115962;27;20031;-76
2022/07/23 11:06:50;;;;;;;4.00;1.63;;;20.80;63.10;;;;;;5133025;27;20035;-77
2022/07/23 11:09:41;;;;;;;2.90;1.58;;;21.00;63.10;;;;;;5115751;28;20070;-76
2022/07/23 11:12:13;;;;;;;1.98;1.10;;;21.10;63.00;;;;;;5115634;27;20067;-75
2022/07/23 11:14:58;;;;;;;2.47;1.52;;;21.10;62.50;;;;;;5115709;28;20453;-76
2022/07/23 11:17:25;;;;;;;2.45;1.33;;;21.00;62.60;;;;;;5116075;28;20077;-76
2022/07/23 11:20:09;;;;;;;1.92;1.20;;;21.00;62.90;;;;;;5099461;28;20058;-76
2022/07/23 11:22:39;;;;;;;1.52;1.17;;;21.30;63.30;;;;;;5099190;28;20157;-79
2022/07/23 11:25:06;;;;;;;1.20;1.00;;;21.60;62.30;;;;;;5118651;27;20035;-75
2022/07/23 11:27:43;;;;;;;3.00;1.08;;;21.80;61.00;;;;;;5119055;27;20055;-77
2022/07/23 11:30:11;;;;;;;2.20;1.10;;;21.90;60.60;;;;;;5096482;28;20051;-77
2022/07/23 11:32:40;;;;;;;1.90;1.15;;;22.10;60.60;;;;;;5096208;28;20440;-77
2022/07/23 11:35:21;;;;;;;1.95;1.08;;;22.40;60.00;;;;;;5096447;28;20036;-77
2022/07/23 11:37:47;;;;;;;1.80;1.20;;;22.40;59.60;;;;;;5096399;28;20379;-77
2022/07/23 11:40:16;;;;;;;3.13;1.33;;;22.50;58.50;;;;;;5095878;28;20040;-75
2022/07/23 11:43:09;;;;;;;1.27;1.00;;;22.50;58.10;;;;;;5095823;28;20063;-76
2022/07/23 11:45:41;;;;;;;3.00;1.20;;;22.40;59.00;;;;;;5057005;28;20112;-74
2022/07/23 11:48:09;;;;;;;2.47;1.10;;;22.50;59.20;;;;;;5095114;28;20048;-75
2022/07/23 11:50:36;;;;;;;3.53;1.13;;;22.60;59.60;;;;;;5095600;28;20487;-76
2022/07/23 11:53:03;;;;;;;1.35;1.00;;;22.60;59.70;;;;;;5095319;28;20506;-77
2022/07/23 11:55:29;;;;;;;2.30;1.25;;;22.50;59.50;;;;;;5095507;28;20044;-76
2022/07/23 11:57:55;;;;;;;1.42;1.10;;;22.50;59.20;;;;;;5095369;28;20032;-81
2022/07/23 12:00:24;;;;;;;3.83;1.20;;;22.60;59.30;;;;;;5095275;28;20040;-76
2022/07/23 12:02:53;;;;;;;4.93;1.48;;;22.80;58.00;;;;;;5095317;28;20047;-77
2022/07/23 12:05:26;;;;;;;1.58;1.10;;;22.90;58.10;;;;;;5061845;28;20032;-77
2022/07/23 12:07:55;;;;;;;2.70;1.30;;;23.00;58.20;;;;;;5095254;28;20516;-78
2022/07/23 12:10:54;;;;;;;2.70;1.10;;;23.10;57.70;;;;;;5095164;28;20051;-76
2022/07/23 12:13:22;;;;;;;2.88;1.45;;;22.90;57.70;;;;;;5050831;28;20052;-78
2022/07/23 12:15:53;;;;;;;5.47;1.98;;;22.60;58.40;;;;;;5078360;28;20089;-75
2022/07/23 12:18:24;;;;;;;3.42;1.40;;;22.70;58.50;;;;;;5061632;28;20047;-77
2022/07/23 12:20:53;;;;;;;2.83;1.77;;;22.60;58.40;;;;;;5095252;28;20102;-76
2022/07/23 12:23:21;;;;;;;2.72;1.73;;;22.70;58.60;;;;;;5094815;28;20028;-78
2022/07/23 12:25:48;;;;;;;2.38;1.70;;;22.80;58.00;;;;;;5061194;28;20037;-76
2022/07/23 12:28:18;;;;;;;2.50;2.00;;;22.80;58.30;;;;;;5061090;28;20063;-80
2022/07/23 12:30:47;;;;;;;3.63;2.00;;;22.80;58.40;;;;;;5077894;28;20082;-76
2022/07/23 12:33:34;;;;;;;2.85;1.98;;;22.60;58.20;;;;;;5077733;28;20124;-77
2022/07/23 12:36:05;;;;;;;6.00;2.13;;;22.50;58.90;;;;;;5059884;28;20044;-77
2022/07/23 12:38:48;;;;;;;3.05;1.90;;;22.40;58.90;;;;;;5061003;28;20044;-79
2022/07/23 12:41:14;;;;;;;3.53;2.20;;;22.40;59.40;;;;;;5094590;28;20105;-76
2022/07/23 12:43:43;;;;;;;3.15;1.80;;;22.40;59.50;;;;;;5094455;28;20499;-76
2022/07/23 12:46:20;;;;;;;3.47;2.30;;;22.40;59.90;;;;;;5077841;28;20100;-76
2022/07/23 12:48:54;;;;;;;2.90;1.55;;;22.40;59.30;;;;;;5094711;28;20040;-76
2022/07/23 12:51:24;;;;;;;3.30;1.73;;;22.40;59.50;;;;;;5094312;28;20044;-78
2022/07/23 12:53:52;;;;;;;7.63;2.15;;;22.50;59.70;;;;;;5094246;28;20149;-77